createdAt,value
2023-01-11T00:03:57.976Z,77.38
2023-01-11T00:08:57.883Z,78.00
2023-01-11T00:13:57.835Z,78.76
2023-01-11T00:18:57.750Z,79.07
2023-01-11T00:23:57.706Z,79.48
2023-01-11T00:28:57.620Z,80.21
2023-01-11T00:33:57.562Z,80.62
2023-01-11T00:38:57.481Z,80.72
2023-01-11T00:43:57.419Z,81.86
2023-01-11T00:48:57.344Z,82.41
2023-01-11T00:53:57.288Z,82.93
2023-01-11T00:58:57.211Z,84.06
2023-01-11T01:03:57.163Z,83.89
2023-01-11T01:08:57.078Z,84.41
2023-01-11T01:13:57.029Z,84.10
2023-01-11T01:18:56.944Z,83.86
2023-01-11T01:23:56.897Z,83.34
2023-01-11T01:28:56.823Z,83.14
2023-01-11T01:33:56.766Z,82.93
2023-01-11T01:38:56.696Z,82.51
2023-01-11T01:43:56.624Z,82.10
2023-01-11T01:48:56.548Z,82.00
2023-01-11T01:53:56.490Z,82.00
2023-01-11T01:58:56.417Z,82.41
2023-01-11T02:03:56.365Z,82.41
2023-01-11T02:08:56.285Z,82.41
2023-01-11T02:13:56.230Z,82.20
2023-01-11T02:18:56.156Z,82.10
2023-01-11T02:23:56.099Z,82.51
2023-01-11T02:28:56.019Z,82.83
2023-01-11T02:33:55.966Z,82.93
2023-01-11T02:38:55.886Z,83.14
2023-01-11T02:43:55.827Z,83.41
2023-01-11T02:48:55.755Z,83.30
2023-01-11T02:53:55.697Z,83.09
2023-01-11T02:58:55.621Z,82.55
2023-01-11T03:03:55.587Z,82.75
2023-01-11T03:08:55.487Z,82.64
2023-01-11T03:13:55.435Z,82.85
2023-01-11T03:18:55.358Z,83.16
2023-01-11T03:23:55.300Z,83.47
2023-01-11T03:28:55.215Z,83.78
2023-01-11T03:33:55.166Z,83.78
2023-01-11T03:38:55.079Z,84.03
2023-01-11T03:43:55.020Z,84.44
2023-01-11T03:48:54.945Z,84.54
2023-01-11T03:53:54.882Z,84.75
2023-01-11T03:58:54.810Z,84.85
2023-01-11T04:03:54.824Z,85.06
2023-01-11T04:08:54.670Z,85.16
2023-01-11T04:13:54.612Z,85.16
2023-01-11T04:18:54.558Z,85.12
2023-01-11T04:23:54.493Z,85.02
2023-01-11T04:28:54.636Z,85.12
2023-01-11T04:33:54.357Z,85.22
2023-01-11T04:38:54.285Z,85.43
2023-01-11T04:43:54.236Z,85.64
2023-01-11T04:48:54.155Z,86.05
2023-01-11T04:53:54.088Z,86.26
2023-01-11T04:58:54.020Z,86.46
2023-01-11T05:03:54.013Z,86.88
2023-01-11T05:08:53.912Z,87.29
2023-01-11T05:13:53.830Z,87.50
2023-01-11T05:18:53.752Z,87.91
2023-01-11T05:23:53.677Z,88.07
2023-01-11T05:28:53.620Z,88.38
2023-01-11T05:33:53.534Z,88.38
2023-01-11T05:38:53.484Z,87.93
2023-01-11T05:43:53.397Z,87.93
2023-01-11T05:48:53.356Z,87.93
2023-01-11T05:53:53.257Z,87.72
2023-01-11T05:58:53.201Z,87.82
2023-01-11T06:03:53.131Z,87.82
2023-01-11T06:08:53.075Z,87.82
2023-01-11T06:13:52.988Z,87.62
2023-01-11T06:18:52.935Z,87.58
2023-01-11T06:23:52.853Z,87.58
2023-01-11T06:28:52.806Z,87.37
2023-01-11T06:33:52.720Z,87.27
2023-01-11T06:38:52.670Z,87.17
2023-01-11T06:43:52.592Z,87.17
2023-01-11T06:48:52.538Z,87.27
2023-01-11T06:53:52.449Z,87.27
2023-01-11T06:58:52.401Z,87.43
2023-01-11T07:03:52.320Z,87.64
2023-01-11T07:08:52.255Z,87.75
2023-01-11T07:13:52.188Z,87.75
2023-01-11T07:18:52.132Z,87.95
2023-01-11T07:23:52.061Z,87.95
2023-01-11T07:28:51.992Z,88.01
2023-01-11T07:33:51.918Z,87.91
2023-01-11T07:38:51.854Z,87.91
2023-01-11T07:43:51.780Z,88.01
2023-01-11T07:48:51.738Z,87.77
2023-01-11T07:53:51.656Z,87.67
2023-01-11T07:58:51.600Z,87.56
2023-01-11T08:03:51.625Z,87.35
2023-01-11T08:08:51.476Z,87.01
2023-01-11T08:13:51.382Z,86.80
2023-01-11T08:18:51.348Z,86.39
2023-01-11T08:23:51.266Z,86.45
2023-01-11T08:28:51.189Z,85.83
2023-01-11T08:33:51.135Z,90.99
2023-01-11T08:38:51.055Z,84.07
2023-01-11T08:43:50.984Z,84.32
2023-01-11T08:48:50.924Z,84.87
2023-01-11T08:53:50.848Z,85.49
2023-01-11T08:58:50.789Z,85.49
2023-01-11T09:03:50.723Z,85.59
2023-01-11T09:08:50.673Z,85.90
2023-01-11T09:13:50.583Z,85.86
2023-01-11T09:18:50.539Z,85.76
2023-01-11T09:23:50.463Z,85.41
2023-01-11T09:28:50.474Z,85.62
2023-01-11T09:33:50.330Z,85.27
2023-01-11T09:38:50.304Z,85.06
2023-01-11T09:43:50.183Z,84.75
2023-01-11T09:48:50.134Z,84.51
2023-01-11T09:53:50.050Z,84.10
2023-01-11T09:58:49.990Z,84.10
2023-01-11T10:03:49.916Z,83.69
2023-01-11T10:19:18.474Z,83.24
2023-01-11T10:23:50.683Z,83.41
2023-01-11T10:28:49.599Z,83.51
2023-01-11T10:33:49.519Z,84.02
2023-01-11T10:38:49.462Z,85.15
2023-01-11T10:43:49.401Z,85.55
2023-01-11T10:48:49.326Z,85.76
2023-01-11T10:53:49.276Z,87.03
2023-01-11T10:58:49.194Z,88.36
2023-01-11T11:03:49.133Z,90.25
2023-01-11T11:08:49.063Z,90.86
2023-01-11T11:13:48.998Z,91.69
2023-01-11T11:18:48.929Z,92.45
2023-01-11T11:23:48.869Z,92.45
2023-01-11T11:28:48.800Z,93.27
2023-01-11T11:33:48.730Z,93.48
2023-01-11T11:38:48.669Z,93.78
2023-01-11T11:43:48.587Z,94.09
2023-01-11T11:48:48.531Z,93.89
2023-01-11T11:53:48.472Z,94.19
2023-01-11T11:58:48.410Z,94.81
2023-01-11T12:03:48.326Z,95.01
2023-01-11T12:08:48.271Z,95.28
2023-01-11T12:13:48.193Z,95.79
2023-01-11T12:18:48.146Z,95.58
2023-01-11T12:23:48.080Z,95.58
2023-01-11T12:28:48.006Z,95.28
2023-01-11T12:33:47.941Z,95.38
2023-01-11T12:38:47.869Z,95.69
2023-01-11T12:43:47.810Z,95.69
2023-01-11T12:48:47.740Z,95.89
2023-01-11T12:53:47.676Z,96.41
2023-01-11T12:58:47.606Z,96.56
2023-01-11T13:03:47.591Z,96.46
2023-01-11T13:08:47.476Z,96.56
2023-01-11T13:13:47.410Z,96.36
2023-01-11T13:18:47.350Z,96.26
2023-01-11T13:23:47.279Z,96.26
2023-01-11T13:28:47.214Z,96.56
2023-01-11T13:33:47.158Z,96.56
2023-01-11T13:38:47.092Z,99.09
2023-01-11T13:43:46.999Z,98.42
2023-01-11T13:48:46.949Z,96.23
2023-01-11T13:53:46.865Z,94.84
2023-01-11T13:58:46.812Z,96.52
2023-01-11T14:03:46.901Z,97.08
2023-01-11T14:08:46.705Z,97.29
2023-01-11T14:13:46.623Z,97.39
2023-01-11T14:18:46.550Z,97.39
2023-01-11T14:23:46.480Z,97.39
2023-01-11T14:28:46.409Z,97.08
2023-01-11T14:33:46.345Z,97.18
2023-01-11T14:38:46.274Z,96.97
2023-01-11T14:43:46.210Z,96.97
2023-01-11T14:48:46.141Z,97.08
2023-01-11T14:53:46.078Z,97.18
2023-01-11T14:58:46.011Z,97.39
2023-01-11T15:03:45.932Z,97.43
2023-01-11T15:08:45.904Z,97.33
2023-01-11T15:13:45.805Z,97.13
2023-01-11T15:18:45.742Z,97.33
2023-01-11T15:23:45.669Z,97.33
2023-01-11T15:28:45.611Z,97.43
2023-01-11T15:33:45.645Z,97.54
2023-01-11T15:38:45.493Z,97.74
2023-01-11T15:43:45.414Z,98.05
2023-01-11T15:48:45.344Z,98.46
2023-01-11T15:53:45.278Z,98.71
2023-01-11T15:58:45.214Z,98.91
2023-01-11T16:03:45.232Z,99.12
2023-01-11T16:08:45.084Z,99.12
2023-01-11T16:13:45.007Z,99.12
2023-01-11T16:18:44.949Z,99.22
2023-01-11T16:23:44.876Z,99.47
2023-01-11T16:28:44.826Z,99.47
2023-01-11T16:33:44.744Z,99.32
2023-01-11T16:38:44.701Z,99.22
2023-01-11T16:43:44.615Z,98.81
2023-01-11T16:48:44.563Z,98.19
2023-01-11T16:53:44.570Z,98.19
2023-01-11T16:58:44.436Z,97.99
2023-01-11T17:03:44.344Z,97.68
2023-01-11T17:08:44.316Z,97.58
2023-01-11T17:13:44.214Z,97.38
2023-01-11T17:18:44.157Z,97.38
2023-01-11T17:23:44.083Z,98.09
2023-01-11T17:28:44.024Z,97.17
2023-01-11T17:33:43.955Z,97.01
2023-01-11T17:38:43.905Z,96.91
2023-01-11T17:43:43.819Z,97.11
2023-01-11T17:48:43.771Z,96.75
2023-01-11T17:53:43.687Z,96.95
2023-01-11T17:58:43.635Z,96.64
2023-01-11T18:03:43.583Z,96.33
2023-01-11T18:08:43.504Z,96.03
2023-01-11T18:13:43.421Z,95.97
2023-01-11T18:18:43.373Z,96.07
2023-01-11T18:23:43.308Z,96.32
2023-01-11T18:28:43.221Z,96.63
2023-01-11T18:33:43.176Z,96.48
2023-01-11T18:38:43.095Z,96.38
2023-01-11T18:43:43.044Z,96.38
2023-01-11T18:48:42.959Z,95.00
2023-01-11T18:53:42.908Z,94.39
2023-01-11T18:58:42.835Z,93.67
2023-01-11T19:03:44.666Z,93.15
2023-01-11T19:08:42.693Z,92.63
2023-01-11T19:13:43.540Z,92.33
2023-01-11T19:18:42.564Z,91.92
2023-01-11T19:23:42.502Z,91.30
2023-01-11T19:28:42.430Z,91.04
2023-01-11T19:33:42.369Z,90.83
2023-01-11T19:38:42.310Z,90.83
2023-01-11T19:43:42.248Z,90.67
2023-01-11T19:48:42.166Z,90.67
2023-01-11T19:53:42.117Z,90.15
2023-01-11T19:58:42.034Z,90.25
2023-01-11T20:03:41.989Z,89.99
2023-01-11T20:08:41.964Z,89.78
2023-01-11T20:13:41.850Z,89.47
2023-01-11T20:18:41.764Z,89.68
2023-01-11T20:23:41.707Z,89.83
2023-01-11T20:28:41.637Z,89.72
2023-01-11T20:33:41.569Z,89.83
2023-01-11T20:38:41.495Z,89.97
2023-01-11T20:43:41.436Z,90.32
2023-01-11T20:48:41.365Z,90.53
2023-01-11T20:53:41.331Z,91.08
2023-01-11T20:58:41.232Z,91.29
2023-01-11T21:03:41.194Z,91.60
2023-01-11T21:08:41.096Z,92.12
2023-01-11T21:13:41.040Z,91.91
2023-01-11T21:18:40.964Z,91.74
2023-01-11T21:23:40.906Z,91.64
2023-01-11T21:28:40.838Z,91.23
2023-01-11T21:33:40.775Z,91.23
2023-01-11T21:38:40.698Z,90.96
2023-01-11T21:43:40.640Z,90.44
2023-01-11T21:48:40.574Z,90.24
2023-01-11T21:53:40.513Z,89.93
2023-01-11T21:58:40.441Z,89.72
2023-01-11T22:03:40.434Z,89.72
2023-01-11T22:08:40.318Z,89.62
2023-01-11T22:13:40.239Z,89.58
2023-01-11T22:18:40.179Z,88.96
2023-01-11T22:23:40.110Z,88.86
2023-01-11T22:28:40.046Z,88.80
2023-01-11T22:33:39.983Z,88.69
2023-01-11T22:38:39.910Z,88.28
2023-01-11T22:43:39.847Z,88.07
2023-01-11T22:48:39.767Z,88.18
2023-01-11T22:53:39.708Z,87.97
2023-01-11T22:58:39.635Z,87.66
2023-01-11T23:03:39.591Z,87.25
2023-01-11T23:08:39.510Z,87.04
2023-01-11T23:13:39.445Z,86.63
2023-01-11T23:18:39.378Z,86.38
2023-01-11T23:23:39.306Z,85.97
2023-01-11T23:28:39.245Z,85.56
2023-01-11T23:33:39.197Z,85.46
2023-01-11T23:38:39.126Z,84.90
2023-01-11T23:43:39.038Z,85.21
2023-01-11T23:48:38.971Z,86.04
2023-01-11T23:53:38.901Z,86.49
2023-01-11T23:58:38.834Z,86.90
